Time;durP1;ratioP1;P1;durP2;ratioP2;P2;SDS_P1;SDS_P2;PMS_P1;PMS_P2;Temp;Humidity;BMP_temperature;BMP_pressure;BME280_temperature;BME280_humidity;BME280_pressure;Samples;Min_cycle;Max_cycle;Signal;HPM_P1;HPM_P2
2022/05/08 00:01:27;;;;;;;33.67;13.88;;;8.70;99.90;;;;;;7397243;19;20002;-66
2022/05/08 00:03:56;;;;;;;21.95;7.95;;;8.90;99.90;;;;;;7397333;19;20006;-67
2022/05/08 00:06:25;;;;;;;23.25;7.97;;;;;;;;;;7395957;19;20011;-67
2022/05/08 00:08:54;;;;;;;21.02;6.65;;;8.80;99.90;;;;;;7397832;19;20018;-66
2022/05/08 00:11:25;;;;;;;13.60;5.03;;;8.90;99.90;;;;;;7396889;19;20011;-67
2022/05/08 00:13:54;;;;;;;27.75;4.68;;;8.90;99.90;;;;;;7396768;19;20498;-66
2022/05/08 00:16:23;;;;;;;17.50;4.70;;;8.80;99.90;;;;;;7396652;19;20025;-66
2022/05/08 00:18:53;;;;;;;21.90;4.40;;;8.80;99.90;;;;;;7400418;19;20018;-67
2022/05/08 00:21:22;;;;;;;13.98;3.80;;;8.80;99.90;;;;;;7396557;19;20401;-66
2022/05/08 00:23:51;;;;;;;13.80;5.00;;;;;;;;;;7394493;19;20014;-67
2022/05/08 00:26:20;;;;;;;19.20;5.63;;;8.80;99.90;;;;;;7396494;19;20010;-67
2022/05/08 00:28:53;;;;;;;18.80;6.38;;;8.70;99.90;;;;;;7396336;19;20034;-67
2022/05/08 00:31:22;;;;;;;18.30;7.20;;;8.60;99.90;;;;;;7394812;19;20018;-67
2022/05/08 00:33:51;;;;;;;22.80;7.40;;;8.60;99.90;;;;;;7396741;19;20010;-67
2022/05/08 00:36:20;;;;;;;18.30;6.93;;;8.60;99.90;;;;;;7396131;19;20027;-66
2022/05/08 00:38:49;;;;;;;16.17;5.63;;;8.80;99.90;;;;;;7399988;19;20014;-66
2022/05/08 00:41:18;;;;;;;19.10;5.07;;;8.80;99.90;;;;;;7396027;19;20402;-68
2022/05/08 00:43:47;;;;;;;14.90;4.72;;;8.50;99.90;;;;;;7397959;19;20010;-67
2022/05/08 00:46:19;;;;;;;11.20;3.80;;;8.60;99.90;;;;;;7394742;19;20003;-66
2022/05/08 00:48:48;;;;;;;14.35;3.70;;;8.60;99.90;;;;;;7396037;19;20030;-67
2022/05/08 00:51:19;;;;;;;13.73;3.95;;;8.50;99.90;;;;;;7395986;19;20015;-67
2022/05/08 00:53:50;;;;;;;18.15;4.20;;;8.60;99.90;;;;;;7395447;19;19998;-67
2022/05/08 00:56:21;;;;;;;13.57;4.30;;;8.50;99.90;;;;;;7392992;19;20010;-67
2022/05/08 00:58:52;;;;;;;15.35;4.35;;;8.50;99.90;;;;;;7395258;19;20034;-67
2022/05/08 01:01:24;;;;;;;15.48;3.85;;;8.70;99.90;;;;;;7398868;19;20473;-66
2022/05/08 01:03:53;;;;;;;17.48;4.38;;;;;;;;;;7395310;19;20425;-66
2022/05/08 01:06:22;;;;;;;13.73;4.22;;;8.70;99.90;;;;;;7394357;19;20023;-66
2022/05/08 01:08:52;;;;;;;18.25;4.68;;;8.40;99.90;;;;;;7395167;19;20010;-66
2022/05/08 01:11:21;;;;;;;13.43;3.95;;;8.50;99.90;;;;;;7395058;19;20350;-67
2022/05/08 01:13:51;;;;;;;13.93;3.85;;;8.40;99.90;;;;;;7395658;19;20007;-67
2022/05/08 01:16:23;;;;;;;12.98;3.90;;;8.90;99.90;;;;;;7394556;19;20006;-67
2022/05/08 01:18:53;;;;;;;13.60;3.50;;;8.50;99.90;;;;;;7398476;19;20018;-67
2022/05/08 01:21:32;;;;;;;16.60;3.30;;;8.20;99.90;;;;;;7394843;19;20078;-67
2022/05/08 01:24:01;;;;;;;14.05;3.63;;;8.40;99.90;;;;;;7394486;19;20411;-67
2022/05/08 01:26:30;;;;;;;14.55;3.25;;;;;;;;;;7393468;19;20462;-67
2022/05/08 01:29:00;;;;;;;16.20;4.05;;;8.30;99.90;;;;;;7395162;19;20010;-67
2022/05/08 01:31:29;;;;;;;14.82;3.58;;;;;;;;;;7394445;19;20501;-67
2022/05/08 01:33:58;;;;;;;10.35;3.22;;;;;;;;;;7395035;19;20074;-67
2022/05/08 01:36:27;;;;;;;16.05;3.80;;;8.30;99.90;;;;;;7396720;19;20011;-67
2022/05/08 01:38:59;;;;;;;16.75;3.40;;;8.20;99.90;;;;;;7395018;19;20002;-67
2022/05/08 01:41:28;;;;;;;11.25;3.65;;;8.30;99.90;;;;;;7394316;19;20473;-67
2022/05/08 01:43:57;;;;;;;15.48;3.53;;;8.70;99.90;;;;;;7394315;19;20489;-66
2022/05/08 01:46:26;;;;;;;9.30;3.05;;;8.20;99.90;;;;;;7393299;19;20030;-67
2022/05/08 01:48:52;;;;;;;12.73;3.13;;;8.20;99.90;;;;;;7394495;19;20477;-67
2022/05/08 01:51:23;;;;;;;14.45;3.58;;;;;;;;;;7395261;19;20477;-67
2022/05/08 01:53:52;;;;;;;17.92;3.78;;;8.20;99.90;;;;;;7393930;19;20014;-67
2022/05/08 01:56:23;;;;;;;13.57;3.47;;;8.10;99.90;;;;;;7393490;19;20011;-67
2022/05/08 01:58:52;;;;;;;12.13;3.38;;;8.20;99.90;;;;;;7393903;19;20007;-66
2022/05/08 02:01:21;;;;;;;11.90;3.08;;;8.50;99.90;;;;;;7393894;19;20027;-65
2022/05/08 02:03:50;;;;;;;12.63;3.58;;;;;;;;;;7393614;19;20011;-66
2022/05/08 02:06:20;;;;;;;8.73;2.70;;;8.10;99.90;;;;;;7392819;19;20010;-66
2022/05/08 02:08:49;;;;;;;9.82;3.17;;;7.90;99.90;;;;;;7395828;19;20017;-67
2022/05/08 02:11:18;;;;;;;14.05;2.95;;;7.90;99.90;;;;;;7391996;19;20014;-66
2022/05/08 02:13:49;;;;;;;14.93;3.20;;;7.90;99.90;;;;;;7393343;19;20018;-66
2022/05/08 02:16:19;;;;;;;16.88;3.97;;;8.00;99.90;;;;;;7393484;19;20010;-65
2022/05/08 02:18:48;;;;;;;9.43;3.15;;;7.80;99.90;;;;;;7394807;19;20040;-65
2022/05/08 02:21:17;;;;;;;10.88;3.00;;;7.80;99.90;;;;;;7393265;19;20017;-66
2022/05/08 02:23:46;;;;;;;17.42;3.95;;;7.90;99.90;;;;;;7392685;19;20010;-66
2022/05/08 02:26:15;;;;;;;15.40;3.63;;;7.90;99.90;;;;;;7395418;19;20007;-66
2022/05/08 02:28:44;;;;;;;13.05;3.90;;;7.60;99.90;;;;;;7393484;19;20010;-66
2022/05/08 02:31:16;;;;;;;9.70;3.10;;;7.90;99.90;;;;;;7400415;19;20015;-66
2022/05/08 02:33:46;;;;;;;8.98;3.22;;;8.00;99.90;;;;;;7400402;19;20017;-67
2022/05/08 02:36:16;;;;;;;11.18;2.90;;;;;;;;;;7400077;19;20026;-67
2022/05/08 02:38:45;;;;;;;13.32;3.58;;;7.80;99.90;;;;;;7400414;19;20034;-66
2022/05/08 02:41:14;;;;;;;9.43;3.03;;;7.90;99.90;;;;;;7399885;19;20014;-67
2022/05/08 02:43:43;;;;;;;14.65;3.75;;;;;;;;;;7403946;19;20050;-66
2022/05/08 02:46:12;;;;;;;8.68;3.60;;;8.10;99.90;;;;;;7399440;19;20077;-66
2022/05/08 02:48:44;;;;;;;14.13;3.20;;;7.70;99.90;;;;;;7400204;19;20010;-66
2022/05/08 02:51:13;;;;;;;14.68;3.80;;;;;;;;;;7400045;19;20030;-66
2022/05/08 02:53:42;;;;;;;12.45;3.20;;;7.70;99.90;;;;;;7399562;19;20013;-67
2022/05/08 02:58:55;;;;;;;10.55;3.10;;;;;;;;;;7398043;19;20472;-67
2022/05/08 03:01:24;;;;;;;13.52;3.70;;;7.60;99.90;;;;;;7399601;19;20429;-66
2022/05/08 03:03:56;;;;;;;14.30;3.80;;;8.00;99.90;;;;;;7399433;19;20018;-67
2022/05/08 03:06:25;;;;;;;13.82;4.10;;;7.60;99.90;;;;;;7398439;19;19998;-66
2022/05/08 03:08:54;;;;;;;9.45;3.20;;;7.50;99.90;;;;;;7399184;19;20019;-66
2022/05/08 03:11:26;;;;;;;10.38;2.92;;;7.50;99.90;;;;;;7399203;19;20003;-66
2022/05/08 03:13:56;;;;;;;11.43;2.90;;;8.00;99.90;;;;;;7399345;19;20021;-67
2022/05/08 03:16:27;;;;;;;8.95;3.08;;;7.80;99.90;;;;;;7398744;19;20011;-66
2022/05/08 03:18:59;;;;;;;13.38;3.15;;;7.30;99.90;;;;;;7398650;19;20032;-66
2022/05/08 03:21:28;;;;;;;9.57;3.05;;;7.40;99.90;;;;;;7402511;19;20038;-66
2022/05/08 03:23:57;;;;;;;9.40;2.80;;;7.40;99.90;;;;;;7397918;19;20014;-66
2022/05/08 03:26:28;;;;;;;8.75;2.90;;;7.30;99.90;;;;;;7398352;19;20015;-67
2022/05/08 03:28:57;;;;;;;12.20;3.38;;;7.80;99.90;;;;;;7398406;19;20019;-66
2022/05/08 03:31:27;;;;;;;7.00;2.70;;;7.40;99.90;;;;;;7398370;19;20006;-67
2022/05/08 03:33:56;;;;;;;9.55;2.75;;;;;;;;;;7400843;19;20013;-67
2022/05/08 03:36:28;;;;;;;10.73;3.50;;;7.80;99.90;;;;;;7398363;19;20006;-67
2022/05/08 03:38:57;;;;;;;5.47;2.40;;;7.40;99.90;;;;;;7398406;19;20444;-67
2022/05/08 03:41:26;;;;;;;13.82;3.55;;;7.40;99.90;;;;;;7397435;19;20010;-67
2022/05/08 03:43:55;;;;;;;11.18;3.10;;;7.40;99.90;;;;;;7397773;19;20003;-68
2022/05/08 03:46:25;;;;;;;6.22;2.33;;;;;;;;;;7397405;19;20003;-67
2022/05/08 03:48:54;;;;;;;10.52;3.28;;;7.30;99.90;;;;;;7398071;19;20470;-67
2022/05/08 03:51:23;;;;;;;11.15;3.20;;;7.70;99.90;;;;;;7401184;19;20010;-68
2022/05/08 03:53:54;;;;;;;11.40;2.53;;;7.40;99.90;;;;;;7398050;19;19994;-67
2022/05/08 03:56:24;;;;;;;11.23;2.72;;;7.30;99.90;;;;;;7396377;19;20025;-67
2022/05/08 03:58:53;;;;;;;9.68;2.75;;;;;;;;;;7397845;19;20079;-67
2022/05/08 04:01:22;;;;;;;9.50;2.63;;;;;;;;;;7397339;19;20014;-67
2022/05/08 04:03:51;;;;;;;12.95;3.15;;;7.50;99.90;;;;;;7397141;19;20010;-68
2022/05/08 04:06:20;;;;;;;12.07;3.17;;;;;;;;;;7396849;19;20033;-67
2022/05/08 04:08:49;;;;;;;10.02;3.10;;;7.30;99.90;;;;;;7401351;19;20331;-67
2022/05/08 04:11:21;;;;;;;10.65;2.80;;;7.20;99.90;;;;;;7396981;19;20023;-68
2022/05/08 04:13:50;;;;;;;9.93;2.88;;;;;;;;;;7397287;19;20006;-67
2022/05/08 04:16:21;;;;;;;11.18;2.95;;;;;;;;;;7396873;19;20014;-67
2022/05/08 04:18:51;;;;;;;9.23;2.78;;;7.40;99.90;;;;;;7397753;19;19998;-65
2022/05/08 04:21:20;;;;;;;11.85;2.85;;;7.80;99.90;;;;;;7399767;19;20495;-66
2022/05/08 04:26:33;;;;;;;9.77;2.78;;;7.10;99.90;;;;;;7396111;19;20010;-67
2022/05/08 04:29:03;;;;;;;7.38;2.63;;;7.50;99.90;;;;;;7396372;19;20011;-66
2022/05/08 04:31:33;;;;;;;12.88;3.05;;;7.50;99.90;;;;;;7397308;19;20010;-66
2022/05/08 04:34:02;;;;;;;13.68;2.70;;;7.50;99.90;;;;;;7396067;19;20015;-66
2022/05/08 04:36:31;;;;;;;10.15;2.88;;;7.60;99.90;;;;;;7394546;19;20015;-67
2022/05/08 04:39:00;;;;;;;8.77;2.85;;;7.60;99.90;;;;;;7396517;19;20002;-67
2022/05/08 04:41:29;;;;;;;9.60;2.47;;;7.70;99.90;;;;;;7397685;19;20003;-67
2022/05/08 04:44:02;;;;;;;6.20;2.33;;;7.70;99.90;;;;;;7395866;19;20002;-67
2022/05/08 04:46:31;;;;;;;10.90;2.97;;;;;;;;;;7396108;19;20019;-68
2022/05/08 04:49:01;;;;;;;6.15;2.30;;;;;;;;;;7395600;19;20003;-67
2022/05/08 04:51:30;;;;;;;10.00;2.50;;;7.80;99.90;;;;;;7395237;19;20523;-67
2022/05/08 04:54:00;;;;;;;5.53;2.30;;;;;;;;;;7395449;19;20468;-67
2022/05/08 04:56:29;;;;;;;10.27;3.03;;;;;;;;;;7394716;19;20014;-66
2022/05/08 04:59:00;;;;;;;8.18;2.55;;;7.80;99.90;;;;;;7398037;19;20013;-67
2022/05/08 05:01:29;;;;;;;12.73;2.58;;;7.90;99.90;;;;;;7396564;19;20010;-67
2022/05/08 05:03:59;;;;;;;11.02;3.08;;;8.00;99.90;;;;;;7395674;19;20002;-67
2022/05/08 05:06:28;;;;;;;10.02;2.95;;;8.00;99.90;;;;;;7395134;19;20031;-66
2022/05/08 05:08:57;;;;;;;8.95;3.13;;;8.40;99.90;;;;;;7395054;19;20415;-67
2022/05/08 05:11:26;;;;;;;8.32;2.85;;;7.80;99.90;;;;;;7395643;19;20277;-67
2022/05/08 05:13:55;;;;;;;11.68;2.75;;;8.10;99.90;;;;;;7395046;19;20016;-67
2022/05/08 05:16:27;;;;;;;7.05;2.80;;;8.20;99.90;;;;;;7398455;19;20007;-67
2022/05/08 05:18:56;;;;;;;11.32;2.60;;;8.40;99.90;;;;;;7395074;19;20354;-67
2022/05/08 05:21:25;;;;;;;9.52;3.08;;;8.30;99.90;;;;;;7398107;19;20006;-67
2022/05/08 05:23:54;;;;;;;7.55;2.47;;;8.50;99.90;;;;;;7392711;19;20023;-67
2022/05/08 05:26:23;;;;;;;5.85;2.22;;;8.60;99.90;;;;;;7394916;19;20076;-67
2022/05/08 05:28:52;;;;;;;8.48;2.25;;;8.90;99.90;;;;;;7392607;19;20359;-67
2022/05/08 05:31:21;;;;;;;8.85;2.67;;;8.80;99.90;;;;;;7397547;19;20010;-66
2022/05/08 05:33:53;;;;;;;11.40;2.70;;;8.90;99.90;;;;;;7398594;19;20015;-66
2022/05/08 05:36:24;;;;;;;10.13;2.45;;;8.80;99.90;;;;;;7392649;19;20038;-66
2022/05/08 05:38:53;;;;;;;8.52;2.42;;;8.60;99.90;;;;;;7394282;19;20011;-66
2022/05/08 05:41:22;;;;;;;15.18;3.00;;;8.90;99.90;;;;;;7394515;19;20016;-67
2022/05/08 05:43:51;;;;;;;10.63;2.45;;;9.20;99.90;;;;;;7394204;19;20062;-68
2022/05/08 05:49:07;;;;;;;8.77;2.38;;;8.80;99.90;;;;;;7394681;19;20010;-66
2022/05/08 05:51:36;;;;;;;8.77;2.45;;;8.90;99.90;;;;;;7394724;19;20010;-67
2022/05/08 05:54:05;;;;;;;7.22;2.35;;;9.20;99.90;;;;;;7393873;19;20007;-66
2022/05/08 05:56:34;;;;;;;9.93;2.30;;;9.40;99.90;;;;;;7392054;19;20050;-70
2022/05/08 05:59:03;;;;;;;5.13;2.08;;;9.80;99.90;;;;;;7393620;19;20011;-67
2022/05/08 06:01:32;;;;;;;7.75;2.35;;;9.50;99.90;;;;;;7392433;19;20014;-67
2022/05/08 06:04:01;;;;;;;7.95;2.28;;;9.50;99.90;;;;;;7397862;19;20034;-66
2022/05/08 06:06:33;;;;;;;7.80;2.72;;;9.30;99.90;;;;;;7403072;19;20006;-67
2022/05/08 06:09:02;;;;;;;8.07;2.00;;;9.20;99.90;;;;;;7398102;19;20568;-67
2022/05/08 06:11:31;;;;;;;9.63;2.17;;;;;;;;;;7401194;19;20010;-67
2022/05/08 06:14:00;;;;;;;10.43;2.13;;;9.80;99.90;;;;;;7400577;19;20018;-67
2022/05/08 06:16:31;;;;;;;10.68;2.50;;;10.10;99.90;;;;;;7401069;19;20346;-67
2022/05/08 06:19:00;;;;;;;11.13;2.08;;;;;;;;;;7400905;19;20002;-66
2022/05/08 06:21:32;;;;;;;10.57;2.55;;;10.10;99.90;;;;;;7400419;19;20010;-67
2022/05/08 06:24:01;;;;;;;9.02;2.05;;;10.40;99.90;;;;;;7402901;19;20018;-66
2022/05/08 06:26:30;;;;;;;8.65;2.10;;;10.50;99.90;;;;;;7399994;19;19994;-67
2022/05/08 06:28:59;;;;;;;10.50;2.20;;;10.40;99.90;;;;;;7399339;19;20007;-66
2022/05/08 06:31:28;;;;;;;10.93;1.95;;;10.40;99.90;;;;;;7400179;19;20066;-67
2022/05/08 06:33:58;;;;;;;11.57;2.40;;;11.10;99.90;;;;;;7399884;19;20011;-66
2022/05/08 06:36:28;;;;;;;9.38;2.15;;;11.00;99.90;;;;;;7399836;19;20477;-67
2022/05/08 06:38:59;;;;;;;13.13;2.00;;;10.90;99.10;;;;;;7400111;19;20017;-67
2022/05/08 06:41:29;;;;;;;11.75;2.15;;;10.90;98.60;;;;;;7403767;19;20007;-67
2022/05/08 06:43:58;;;;;;;9.27;2.45;;;10.70;99.00;;;;;;7399683;19;20354;-67
2022/05/08 06:46:31;;;;;;;8.80;2.25;;;11.50;99.10;;;;;;7400062;19;20319;-67
2022/05/08 06:49:00;;;;;;;10.90;2.10;;;11.30;99.30;;;;;;7397952;19;20066;-65
2022/05/08 06:51:30;;;;;;;14.45;2.72;;;;;;;;;;7400158;19;20003;-67
2022/05/08 06:54:01;;;;;;;8.65;2.20;;;11.40;97.80;;;;;;7399488;19;20019;-67
2022/05/08 06:56:34;;;;;;;17.13;2.30;;;11.50;98.70;;;;;;7397384;19;20074;-67
2022/05/08 07:01:46;;;;;;;7.20;2.30;;;11.90;96.80;;;;;;7399059;19;20065;-67
2022/05/08 07:04:16;;;;;;;9.05;2.38;;;11.90;96.90;;;;;;7402092;19;20024;-67
2022/05/08 07:06:45;;;;;;;7.32;2.35;;;12.00;98.00;;;;;;7398920;19;20015;-67
2022/05/08 07:09:16;;;;;;;11.00;1.98;;;12.20;98.10;;;;;;7397210;19;19998;-66
2022/05/08 07:11:47;;;;;;;12.95;2.28;;;11.80;96.00;;;;;;7397066;19;20351;-66
2022/05/08 07:14:17;;;;;;;9.00;2.30;;;12.10;97.60;;;;;;7399857;19;20358;-67
2022/05/08 07:16:46;;;;;;;12.18;2.45;;;11.90;97.70;;;;;;7398385;19;20009;-67
2022/05/08 07:19:15;;;;;;;9.30;1.98;;;12.40;97.70;;;;;;7398542;19;20034;-67
2022/05/08 07:21:44;;;;;;;8.88;2.38;;;;;;;;;;7398501;19;20026;-67
2022/05/08 07:24:16;;;;;;;9.35;2.17;;;12.20;97.30;;;;;;7401188;19;20018;-66
2022/05/08 07:26:47;;;;;;;8.98;2.17;;;12.20;96.90;;;;;;7398764;19;20006;-67
2022/05/08 07:29:16;;;;;;;5.78;2.05;;;12.20;96.90;;;;;;7396530;19;20011;-67
2022/05/08 07:31:45;;;;;;;6.82;2.10;;;12.40;97.20;;;;;;7400389;19;20044;-67
2022/05/08 07:36:57;;;;;;;10.88;2.20;;;12.00;96.40;;;;;;7398044;19;20006;-67
2022/05/08 07:39:28;;;;;;;11.45;2.60;;;11.80;97.10;;;;;;7397699;19;20363;-68
2022/05/08 07:41:58;;;;;;;12.15;2.53;;;;;;;;;;7397732;19;20027;-68
2022/05/08 07:44:27;;;;;;;11.65;2.65;;;11.70;97.50;;;;;;7397566;19;20529;-67
2022/05/08 07:46:56;;;;;;;12.15;2.72;;;11.80;97.40;;;;;;7397715;19;20027;-66
2022/05/08 07:49:25;;;;;;;8.52;2.10;;;11.80;97.30;;;;;;7399614;19;20069;-66
2022/05/08 07:51:54;;;;;;;13.98;2.75;;;12.10;97.30;;;;;;7397730;19;20088;-66
2022/05/08 07:54:23;;;;;;;11.07;2.60;;;11.40;97.30;;;;;;7399981;19;20481;-67
2022/05/08 07:56:55;;;;;;;9.82;2.75;;;11.70;97.60;;;;;;7396527;19;20038;-67
2022/05/08 07:59:24;;;;;;;13.70;2.53;;;12.00;97.50;;;;;;7397272;19;20073;-66
2022/05/08 08:01:53;;;;;;;8.52;2.45;;;12.20;97.00;;;;;;7397724;19;20074;-66
2022/05/08 08:04:22;;;;;;;13.18;2.70;;;12.40;96.20;;;;;;7397075;19;20354;-66
2022/05/08 08:06:51;;;;;;;9.70;2.40;;;12.70;96.70;;;;;;7401471;19;20021;-67
2022/05/08 08:09:20;;;;;;;13.25;2.72;;;;;;;;;;7396119;19;20022;-67
2022/05/08 08:11:50;;;;;;;7.93;2.20;;;12.70;95.80;;;;;;7396910;19;20010;-67
2022/05/08 08:14:22;;;;;;;10.07;2.28;;;12.70;94.70;;;;;;7396800;19;20024;-67
2022/05/08 08:16:51;;;;;;;10.10;2.22;;;12.50;95.90;;;;;;7396832;19;20011;-67
2022/05/08 08:19:20;;;;;;;7.85;2.05;;;12.80;95.90;;;;;;7396682;19;20011;-67
2022/05/08 08:21:49;;;;;;;9.15;2.50;;;13.10;96.20;;;;;;7397379;19;20026;-67
2022/05/08 08:24:19;;;;;;;9.45;2.17;;;13.10;96.00;;;;;;7400502;19;20457;-67
2022/05/08 08:26:48;;;;;;;10.88;2.70;;;13.00;95.40;;;;;;7396565;19;20011;-67
2022/05/08 08:29:17;;;;;;;10.88;2.40;;;13.40;95.30;;;;;;7395573;19;20015;-67
2022/05/08 08:31:48;;;;;;;8.77;2.55;;;13.40;93.30;;;;;;7396774;19;20074;-67
2022/05/08 08:34:18;;;;;;;10.95;2.35;;;13.30;94.40;;;;;;7394737;19;20030;-67
2022/05/08 08:36:49;;;;;;;5.45;2.33;;;13.10;92.80;;;;;;7395658;19;20006;-67
2022/05/08 08:39:18;;;;;;;7.60;2.47;;;12.60;94.00;;;;;;7397633;19;20013;-67
2022/05/08 08:42:03;;;;;;;11.35;2.25;;;13.10;93.40;;;;;;7396017;19;20006;-67
2022/05/08 08:50:04;;;;;;;8.73;2.10;;;13.70;94.70;;;;;;7394054;19;20011;-67
2022/05/08 08:52:34;;;;;;;8.45;1.98;;;13.70;94.50;;;;;;7396225;19;20002;-67
2022/05/08 08:55:04;;;;;;;10.65;2.80;;;13.80;94.40;;;;;;7399526;19;20473;-68
2022/05/08 08:57:33;;;;;;;12.10;2.40;;;13.80;94.10;;;;;;7399401;19;20002;-67
2022/05/08 09:00:02;;;;;;;9.75;2.38;;;13.80;94.00;;;;;;7395861;19;20013;-67
2022/05/08 09:02:34;;;;;;;10.48;2.22;;;13.70;94.40;;;;;;7395621;19;20422;-67
2022/05/08 09:05:07;;;;;;;11.98;2.95;;;13.80;94.00;;;;;;7396640;19;20014;-67
2022/05/08 09:07:43;;;;;;;6.63;2.00;;;13.90;94.30;;;;;;7395422;19;20010;-67
2022/05/08 09:10:15;;;;;;;11.10;2.47;;;14.00;93.80;;;;;;7394855;19;20074;-67
2022/05/08 09:12:47;;;;;;;12.30;3.17;;;14.20;94.20;;;;;;7395473;19;20023;-67
2022/05/08 09:15:24;;;;;;;9.80;2.58;;;14.30;93.80;;;;;;7395438;19;20006;-67
2022/05/08 09:17:57;;;;;;;10.07;2.38;;;14.30;93.70;;;;;;7395186;19;20010;-68
2022/05/08 09:20:29;;;;;;;11.35;2.17;;;14.30;93.30;;;;;;7395360;19;20437;-67
2022/05/08 09:23:02;;;;;;;10.98;2.85;;;14.70;92.90;;;;;;7395118;19;20016;-67
2022/05/08 09:25:46;;;;;;;8.30;2.45;;;14.40;93.10;;;;;;7396516;19;20017;-67
2022/05/08 09:28:16;;;;;;;9.75;2.60;;;14.40;93.10;;;;;;7394936;19;20030;-67
2022/05/08 09:31:02;;;;;;;9.45;2.78;;;14.60;92.80;;;;;;7396712;19;20010;-67
2022/05/08 09:33:35;;;;;;;;;;;14.70;91.40;;;;;;7396018;19;20016;-67
2022/05/08 09:36:07;;;;;;;12.57;2.90;;;14.50;92.40;;;;;;7394322;19;19918;-67
2022/05/08 09:38:50;;;;;;;9.35;2.22;;;14.80;92.20;;;;;;7397665;19;20473;-67
2022/05/08 09:41:21;;;;;;;11.20;2.65;;;14.70;92.70;;;;;;7402237;19;20010;-67
2022/05/08 09:43:50;;;;;;;12.32;2.80;;;14.70;91.70;;;;;;7402966;19;20010;-66
2022/05/08 09:46:20;;;;;;;10.77;2.70;;;14.70;92.60;;;;;;7402174;19;20006;-66
2022/05/08 09:48:52;;;;;;;12.02;2.88;;;14.60;92.20;;;;;;7405274;19;20013;-66
2022/05/08 09:51:22;;;;;;;9.38;2.75;;;14.80;92.00;;;;;;7401654;19;20006;-67
2022/05/08 09:53:51;;;;;;;10.55;2.65;;;14.90;91.30;;;;;;7403228;19;20007;-66
2022/05/08 09:56:20;;;;;;;9.65;2.42;;;15.20;91.50;;;;;;7399647;19;20033;-66
2022/05/08 09:58:49;;;;;;;10.63;2.70;;;15.10;91.00;;;;;;7401351;19;20078;-66
2022/05/08 10:01:19;;;;;;;8.98;2.55;;;15.50;90.50;;;;;;7400982;19;20002;-66
2022/05/08 10:03:51;;;;;;;11.55;3.00;;;15.50;89.80;;;;;;7401264;19;20011;-67
2022/05/08 10:06:21;;;;;;;10.65;2.20;;;15.70;88.70;;;;;;7401664;19;20002;-67
2022/05/08 10:08:51;;;;;;;10.77;2.63;;;16.00;89.10;;;;;;7403546;19;20134;-67
2022/05/08 10:14:04;;;;;;;9.98;2.47;;;16.90;85.90;;;;;;7400622;19;20015;-66
2022/05/08 10:16:49;;;;;;;8.68;2.50;;;17.00;85.00;;;;;;7400515;19;20015;-67
2022/05/08 10:20:00;;;;;;;13.48;3.13;;;17.10;82.70;;;;;;7400849;19;20015;-66
2022/05/08 10:22:49;;;;;;;11.02;2.53;;;17.10;80.30;;;;;;7403884;19;20086;-66
2022/05/08 10:25:19;;;;;;;11.18;2.58;;;17.20;80.70;;;;;;7401683;19;20006;-67
2022/05/08 10:28:06;;;;;;;9.45;2.50;;;17.30;81.80;;;;;;7400683;19;20014;-66
2022/05/08 10:30:35;;;;;;;9.48;2.60;;;17.80;78.50;;;;;;7400390;19;20453;-66
2022/05/08 10:33:05;;;;;;;10.20;2.10;;;18.20;79.90;;;;;;7400584;19;20062;-66
2022/05/08 10:35:34;;;;;;;8.48;2.00;;;18.20;75.40;;;;;;7400681;19;20031;-66
2022/05/08 10:38:25;;;;;;;8.07;2.00;;;18.40;77.10;;;;;;7400515;19;20027;-67
2022/05/08 10:40:55;;;;;;;9.57;2.15;;;18.80;72.50;;;;;;7399745;19;20013;-65
2022/05/08 10:43:35;;;;;;;12.57;2.45;;;18.60;74.20;;;;;;7399816;19;20074;-67
2022/05/08 10:46:23;;;;;;;9.43;2.00;;;18.80;74.80;;;;;;7399738;19;20002;-66
2022/05/08 10:48:54;;;;;;;7.95;2.13;;;18.70;72.30;;;;;;7399255;19;20006;-66
2022/05/08 10:51:24;;;;;;;11.80;2.75;;;19.00;74.60;;;;;;7397581;19;20019;-66
2022/05/08 10:53:55;;;;;;;7.90;2.17;;;18.10;75.00;;;;;;7399697;19;20007;-66
2022/05/08 10:56:24;;;;;;;5.72;2.25;;;18.60;74.60;;;;;;7400960;19;20070;-66
2022/05/08 10:58:56;;;;;;;9.55;2.20;;;19.10;73.90;;;;;;7399818;19;20014;-66
2022/05/08 11:01:30;;;;;;;9.13;2.28;;;19.50;73.00;;;;;;7399930;19;20010;-66
2022/05/08 11:04:13;;;;;;;9.70;2.58;;;19.30;70.50;;;;;;7399385;19;20006;-66
2022/05/08 11:06:42;;;;;;;10.80;2.35;;;19.10;70.80;;;;;;7399142;19;20006;-67
2022/05/08 11:09:13;;;;;;;8.48;2.58;;;19.20;71.90;;;;;;7398268;19;20006;-66
2022/05/08 11:11:42;;;;;;;11.63;2.88;;;19.70;71.50;;;;;;7399818;19;20010;-66
2022/05/08 11:14:26;;;;;;;10.60;2.40;;;20.10;69.20;;;;;;7399098;19;20027;-66
2022/05/08 11:16:55;;;;;;;10.55;2.50;;;19.90;65.40;;;;;;7399438;19;20042;-67
2022/05/08 11:19:24;;;;;;;8.55;2.35;;;20.00;68.90;;;;;;7397425;19;20014;-67
2022/05/08 11:22:08;;;;;;;8.38;2.10;;;20.00;66.60;;;;;;7399958;19;20018;-67
2022/05/08 11:24:40;;;;;;;10.38;2.55;;;20.10;64.90;;;;;;7399191;19;20018;-69
2022/05/08 11:27:16;;;;;;;8.93;2.42;;;20.10;64.50;;;;;;7398574;19;20023;-66
2022/05/08 11:29:50;;;;;;;8.43;2.15;;;20.00;65.20;;;;;;7399571;19;20011;-66
2022/05/08 11:38:02;;;;;;;8.88;2.42;;;20.90;63.50;;;;;;7397138;19;20074;-66
2022/05/08 11:40:35;;;;;;;7.15;2.05;;;21.10;62.60;;;;;;7398079;19;20026;-66
2022/05/08 11:43:04;;;;;;;6.82;1.92;;;21.20;61.60;;;;;;7398195;19;20019;-66
2022/05/08 11:45:34;;;;;;;7.45;2.38;;;21.60;60.40;;;;;;7397463;19;20017;-65
2022/05/08 11:48:03;;;;;;;10.20;2.55;;;20.10;58.10;;;;;;7402226;19;20031;-67
2022/05/08 11:50:32;;;;;;;6.90;2.15;;;21.40;59.00;;;;;;7396348;19;20021;-66
2022/05/08 11:53:02;;;;;;;9.25;2.20;;;21.50;58.20;;;;;;7398023;19;19999;-66
2022/05/08 11:55:44;;;;;;;10.20;2.72;;;21.60;59.40;;;;;;7399116;19;20058;-66
2022/05/08 11:58:14;;;;;;;6.95;2.13;;;21.80;59.30;;;;;;7397563;19;20070;-66
2022/05/08 12:00:42;;;;;;;7.40;2.25;;;22.00;59.00;;;;;;7397004;19;20044;-66
2022/05/08 12:03:29;;;;;;;6.57;2.40;;;22.00;59.70;;;;;;7398537;19;20376;-66
2022/05/08 12:06:14;;;;;;;8.43;2.55;;;22.10;58.50;;;;;;7397234;19;20056;-66
2022/05/08 12:08:43;;;;;;;7.68;2.03;;;21.60;58.80;;;;;;7396998;19;20007;-65
2022/05/08 12:11:33;;;;;;;7.85;2.38;;;21.10;60.20;;;;;;7397040;19;20014;-66
2022/05/08 12:14:07;;;;;;;6.45;2.30;;;20.70;61.60;;;;;;7395509;19;20014;-66
2022/05/08 12:16:37;;;;;;;10.05;1.98;;;20.90;61.10;;;;;;7397525;19;20078;-66
2022/05/08 12:19:19;;;;;;;7.43;2.38;;;21.60;61.60;;;;;;7397513;19;20002;-67
2022/05/08 12:21:48;;;;;;;8.90;1.90;;;21.90;60.00;;;;;;7401208;19;20010;-67
2022/05/08 12:24:20;;;;;;;10.60;2.63;;;21.60;61.00;;;;;;7395735;19;20029;-65
2022/05/08 12:26:52;;;;;;;9.38;2.45;;;21.40;59.70;;;;;;7399752;19;20035;-66
2022/05/08 12:29:23;;;;;;;11.95;3.25;;;20.40;58.80;;;;;;7395950;19;20355;-65
2022/05/08 12:31:54;;;;;;;11.10;2.40;;;20.00;61.90;;;;;;7396651;19;20007;-65
2022/05/08 12:34:24;;;;;;;10.55;2.50;;;20.50;63.40;;;;;;7394782;19;20019;-65
2022/05/08 12:36:53;;;;;;;10.15;2.50;;;20.90;61.80;;;;;;7396995;19;20022;-65
2022/05/08 12:39:22;;;;;;;9.23;2.30;;;21.50;61.50;;;;;;7396726;19;20058;-66
2022/05/08 12:41:54;;;;;;;11.20;2.38;;;21.50;60.10;;;;;;7396571;19;20009;-66
2022/05/08 12:44:23;;;;;;;8.27;2.45;;;21.70;59.40;;;;;;7396128;19;20022;-66
2022/05/08 12:46:52;;;;;;;6.75;2.13;;;21.70;59.40;;;;;;7395921;19;20034;-66
2022/05/08 12:49:23;;;;;;;9.70;2.45;;;22.00;59.00;;;;;;7395556;19;20015;-66
2022/05/08 12:51:52;;;;;;;8.75;2.42;;;21.90;58.30;;;;;;7396248;19;20011;-66
2022/05/08 12:54:21;;;;;;;10.15;2.80;;;22.30;57.90;;;;;;7397277;19;20031;-66
2022/05/08 12:56:50;;;;;;;8.95;2.13;;;21.60;59.10;;;;;;7398784;19;20049;-66
2022/05/08 13:02:03;;;;;;;9.48;2.88;;;22.60;57.70;;;;;;7395967;19;20345;-65
2022/05/08 13:04:33;;;;;;;13.10;3.05;;;21.80;57.20;;;;;;7395120;19;20346;-66
2022/05/08 13:07:02;;;;;;;11.63;2.92;;;20.70;58.30;;;;;;7395485;19;20023;-65
2022/05/08 13:09:31;;;;;;;10.98;2.33;;;21.70;59.20;;;;;;7394606;19;20032;-66
2022/05/08 13:12:00;;;;;;;10.02;2.47;;;22.00;58.70;;;;;;7397423;19;20010;-66
2022/05/08 13:14:32;;;;;;;10.55;2.85;;;21.30;58.70;;;;;;7393565;19;20007;-65
2022/05/08 13:17:05;;;;;;;7.32;2.30;;;21.70;59.30;;;;;;7395053;19;20509;-65
2022/05/08 13:19:36;;;;;;;8.07;2.28;;;23.00;56.60;;;;;;7396696;19;20010;-65
2022/05/08 13:22:06;;;;;;;8.30;2.03;;;23.80;55.90;;;;;;7394983;19;20030;-65
2022/05/08 13:24:36;;;;;;;11.77;2.65;;;23.20;54.10;;;;;;7393699;19;19994;-65
2022/05/08 13:27:06;;;;;;;12.57;3.00;;;23.70;54.20;;;;;;7397980;19;20039;-65
2022/05/08 13:29:38;;;;;;;10.27;2.70;;;23.00;54.90;;;;;;7397849;19;20481;-65
2022/05/08 13:32:07;;;;;;;7.20;2.10;;;23.60;55.70;;;;;;7392922;19;20022;-65
2022/05/08 13:34:37;;;;;;;13.82;2.75;;;24.20;54.10;;;;;;7394773;19;20002;-65
2022/05/08 13:37:06;;;;;;;8.80;2.10;;;24.20;53.60;;;;;;7394504;19;20003;-65
2022/05/08 13:39:35;;;;;;;9.43;2.70;;;23.80;53.00;;;;;;7394500;19;20421;-66
2022/05/08 13:42:06;;;;;;;8.55;2.40;;;23.10;53.80;;;;;;7394459;19;20042;-66
2022/05/08 13:44:38;;;;;;;9.07;2.50;;;23.40;54.30;;;;;;7394435;19;20006;-66